createdAt,value
2019-03-17T00:00:13.580Z,69.39
2019-03-17T00:02:42.497Z,70.08
2019-03-17T00:05:11.618Z,70.41
2019-03-17T00:07:40.538Z,70.44
2019-03-17T00:10:09.626Z,69.79
2019-03-17T00:12:38.658Z,69.59
2019-03-17T00:15:08.303Z,70.01
2019-03-17T00:17:37.284Z,70.49
2019-03-17T00:20:07.657Z,70.73
2019-03-17T00:22:36.658Z,71.06
2019-03-17T00:25:09.743Z,71.22
2019-03-17T00:27:38.379Z,71.37
2019-03-17T00:30:09.859Z,70.63
2019-03-17T00:32:38.900Z,70.02
2019-03-17T00:35:09.174Z,69.75
2019-03-17T00:37:38.458Z,69.13
2019-03-17T00:40:10.143Z,69.16
2019-03-17T00:42:39.151Z,68.90
2019-03-17T00:45:11.555Z,68.79
2019-03-17T00:47:40.866Z,68.93
2019-03-17T00:50:11.739Z,69.29
2019-03-17T00:52:40.619Z,70.25
2019-03-17T00:55:09.662Z,70.52
2019-03-17T00:57:38.618Z,70.15
2019-03-17T01:00:10.985Z,70.01
2019-03-17T01:02:40.021Z,70.16
2019-03-17T01:05:09.099Z,69.69
2019-03-17T01:07:38.229Z,69.54
2019-03-17T01:10:09.105Z,69.18
2019-03-17T01:12:38.401Z,68.94
2019-03-17T01:15:08.499Z,68.72
2019-03-17T01:17:37.467Z,68.36
2019-03-17T01:20:09.345Z,68.58
2019-03-17T01:22:38.299Z,68.18
2019-03-17T01:25:09.345Z,68.53
2019-03-17T01:27:38.426Z,68.83
2019-03-17T01:30:12.939Z,68.98
2019-03-17T01:32:41.982Z,68.67
2019-03-17T01:35:11.220Z,68.51
2019-03-17T01:37:40.259Z,68.35
2019-03-17T01:40:10.581Z,68.31
2019-03-17T01:42:39.659Z,67.96
2019-03-17T01:45:09.906Z,67.53
2019-03-17T01:47:39.055Z,67.00
2019-03-17T01:50:09.220Z,67.30
2019-03-17T01:52:38.221Z,67.08
2019-03-17T01:55:08.027Z,66.83
2019-03-17T01:57:37.100Z,67.06
2019-03-17T02:00:09.379Z,67.26
2019-03-17T02:02:38.340Z,67.22
2019-03-17T02:05:07.899Z,67.47
2019-03-17T02:07:36.939Z,67.63
2019-03-17T02:10:07.627Z,67.70
2019-03-17T02:12:36.580Z,68.07
2019-03-17T02:15:08.105Z,68.38
2019-03-17T02:17:37.179Z,68.48
2019-03-17T02:20:09.265Z,68.46
2019-03-17T02:22:38.219Z,68.34
2019-03-17T02:25:07.379Z,68.07
2019-03-17T02:27:36.489Z,68.09
2019-03-17T02:30:08.141Z,67.81
2019-03-17T02:32:37.234Z,67.15
2019-03-17T02:35:06.661Z,66.99
2019-03-17T02:37:35.704Z,66.86
2019-03-17T02:40:06.581Z,66.65
2019-03-17T02:42:35.782Z,66.66
2019-03-17T02:45:06.876Z,66.56
2019-03-17T02:47:35.939Z,66.72
2019-03-17T02:50:06.346Z,66.94
2019-03-17T02:52:35.470Z,66.99
2019-03-17T02:55:05.900Z,66.65
2019-03-17T02:57:34.940Z,66.72
2019-03-17T03:00:04.871Z,66.20
2019-03-17T03:02:33.825Z,66.16
2019-03-17T03:05:02.899Z,66.29
2019-03-17T03:07:31.988Z,66.07
2019-03-17T03:10:00.983Z,66.14
2019-03-17T03:12:29.944Z,65.98
2019-03-17T03:14:59.019Z,66.07
2019-03-17T03:17:28.036Z,65.93
2019-03-17T03:19:56.948Z,66.24
2019-03-17T03:22:25.900Z,66.14
2019-03-17T03:24:54.820Z,65.74
2019-03-17T03:27:23.939Z,65.93
2019-03-17T03:29:52.904Z,65.72
2019-03-17T03:32:21.982Z,65.63
2019-03-17T03:34:51.060Z,65.77
2019-03-17T03:37:20.138Z,66.10
2019-03-17T03:39:49.181Z,66.07
2019-03-17T03:42:18.186Z,66.23
2019-03-17T03:44:47.147Z,66.40
2019-03-17T03:47:16.112Z,66.37
2019-03-17T03:49:45.180Z,66.81
2019-03-17T03:52:14.189Z,66.79
2019-03-17T03:54:43.223Z,66.60
2019-03-17T03:57:12.186Z,66.79
2019-03-17T03:59:41.142Z,66.66
2019-03-17T04:02:10.349Z,66.68
2019-03-17T04:04:39.500Z,66.54
2019-03-17T04:07:08.587Z,66.85
2019-03-17T04:09:37.630Z,66.45
2019-03-17T04:12:06.705Z,66.39
2019-03-17T04:14:35.785Z,66.51
2019-03-17T04:17:04.821Z,66.79
2019-03-17T04:19:33.773Z,66.80
2019-03-17T04:22:02.827Z,67.61
2019-03-17T04:24:31.820Z,68.24
2019-03-17T04:27:00.979Z,68.39
2019-03-17T04:29:30.021Z,68.38
2019-03-17T04:31:59.100Z,68.33
2019-03-17T04:34:28.142Z,68.24
2019-03-17T04:36:57.101Z,68.32
2019-03-17T04:39:26.027Z,68.82
2019-03-17T04:41:55.215Z,69.12
2019-03-17T04:44:24.182Z,68.77
2019-03-17T04:46:53.336Z,68.61
2019-03-17T04:49:22.419Z,68.40
2019-03-17T04:51:51.579Z,68.91
2019-03-17T04:54:20.421Z,69.06
2019-03-17T04:56:49.339Z,69.19
2019-03-17T04:59:18.459Z,68.94
2019-03-17T05:01:47.379Z,68.66
2019-03-17T05:04:16.461Z,69.01
2019-03-17T05:06:52.641Z,69.04
2019-03-17T05:09:16.244Z,68.47
2019-03-17T05:11:45.265Z,69.77
2019-03-17T05:14:14.219Z,69.77
2019-03-17T05:16:43.104Z,69.93
2019-03-17T05:19:12.059Z,70.04
2019-03-17T05:21:41.219Z,69.54
2019-03-17T05:24:10.144Z,69.95
2019-03-17T05:26:39.355Z,70.09
2019-03-17T05:29:08.419Z,69.82
2019-03-17T05:31:37.611Z,69.43
2019-03-17T05:34:06.585Z,69.09
2019-03-17T05:36:35.579Z,68.59
2019-03-17T05:39:06.376Z,67.89
2019-03-17T05:41:35.227Z,68.37
2019-03-17T05:44:04.219Z,68.76
2019-03-17T05:46:33.050Z,68.77
2019-03-17T05:49:01.979Z,68.57
2019-03-17T05:51:30.902Z,68.71
2019-03-17T05:53:59.819Z,68.65
2019-03-17T05:56:28.779Z,68.70
2019-03-17T05:58:57.866Z,68.73
2019-03-17T06:01:26.900Z,68.69
2019-03-17T06:03:56.383Z,68.25
2019-03-17T06:06:25.370Z,68.30
2019-03-17T06:08:54.408Z,68.16
2019-03-17T06:11:23.320Z,68.05
2019-03-17T06:13:52.377Z,68.04
2019-03-17T06:16:21.459Z,68.62
2019-03-17T06:18:50.579Z,67.74
2019-03-17T06:21:19.621Z,67.61
2019-03-17T06:23:48.739Z,67.44
2019-03-17T06:26:17.659Z,67.44
2019-03-17T06:28:46.579Z,67.37
2019-03-17T06:31:15.458Z,67.25
2019-03-17T06:33:44.659Z,66.75
2019-03-17T06:36:13.499Z,66.10
2019-03-17T06:38:42.539Z,65.86
2019-03-17T06:41:11.467Z,65.54
2019-03-17T06:43:40.499Z,65.41
2019-03-17T06:46:09.586Z,64.88
2019-03-17T06:48:38.579Z,64.49
2019-03-17T06:51:07.539Z,65.32
2019-03-17T06:53:36.579Z,64.42
2019-03-17T06:56:05.659Z,64.05
2019-03-17T06:58:34.658Z,64.04
2019-03-17T07:01:03.906Z,64.64
2019-03-17T07:03:32.986Z,63.47
2019-03-17T07:06:02.349Z,63.05
2019-03-17T07:08:31.380Z,61.98
2019-03-17T07:11:00.419Z,62.02
2019-03-17T07:13:29.379Z,62.16
2019-03-17T07:15:58.419Z,61.53
2019-03-17T07:18:27.379Z,61.99
2019-03-17T07:20:56.263Z,61.14
2019-03-17T07:23:25.299Z,60.30
2019-03-17T07:25:54.299Z,59.67
2019-03-17T07:28:23.262Z,59.70
2019-03-17T07:30:52.301Z,59.93
2019-03-17T07:33:21.460Z,58.47
2019-03-17T07:35:50.499Z,58.65
2019-03-17T07:38:19.339Z,59.37
2019-03-17T07:40:48.355Z,57.77
2019-03-17T07:43:17.579Z,58.61
2019-03-17T07:45:46.660Z,58.50
2019-03-17T07:48:15.779Z,58.52
2019-03-17T07:50:44.820Z,56.75
2019-03-17T07:53:13.819Z,56.12
2019-03-17T07:55:42.900Z,55.46
2019-03-17T07:58:11.981Z,54.67
2019-03-17T08:00:41.020Z,54.79
2019-03-17T08:03:09.897Z,53.90
2019-03-17T08:05:38.900Z,53.72
2019-03-17T08:08:09.650Z,52.99
2019-03-17T08:10:38.857Z,53.74
2019-03-17T08:13:07.817Z,53.47
2019-03-17T08:15:36.858Z,53.81
2019-03-17T08:18:05.931Z,53.21
2019-03-17T08:20:34.893Z,52.87
2019-03-17T08:23:03.942Z,53.02
2019-03-17T08:25:32.939Z,50.50
2019-03-17T08:28:01.822Z,50.09
2019-03-17T08:30:31.019Z,50.56
2019-03-17T08:33:00.025Z,49.79
2019-03-17T08:35:28.980Z,48.64
2019-03-17T08:37:58.018Z,48.59
2019-03-17T08:40:27.031Z,48.46
2019-03-17T08:42:55.978Z,47.40
2019-03-17T08:45:24.899Z,47.30
2019-03-17T08:47:58.359Z,47.30
2019-03-17T08:50:24.418Z,47.19
2019-03-17T08:52:53.463Z,47.16
2019-03-17T08:55:22.617Z,47.05
2019-03-17T08:57:51.659Z,46.57
2019-03-17T09:00:21.539Z,45.38
2019-03-17T09:02:50.623Z,45.57
2019-03-17T09:05:19.660Z,45.20
2019-03-17T09:07:48.659Z,44.12
2019-03-17T09:10:17.898Z,42.83
2019-03-17T09:12:46.863Z,42.19
2019-03-17T09:15:16.025Z,42.94
2019-03-17T09:17:45.139Z,42.58
2019-03-17T09:20:14.988Z,41.20
2019-03-17T09:22:44.021Z,42.32
2019-03-17T09:25:12.940Z,42.78
2019-03-17T09:27:42.069Z,42.21
2019-03-17T09:30:18.130Z,43.59
2019-03-17T09:32:47.182Z,39.95
2019-03-17T09:35:16.263Z,40.59
2019-03-17T09:37:45.267Z,38.84
2019-03-17T09:40:15.257Z,37.97
2019-03-17T09:42:44.354Z,37.21
2019-03-17T09:45:14.381Z,35.17
2019-03-17T09:47:43.577Z,35.75
2019-03-17T09:50:16.861Z,34.80
2019-03-17T09:52:45.943Z,33.70
2019-03-17T09:55:14.823Z,34.15
2019-03-17T09:57:43.819Z,33.80
2019-03-17T10:00:18.459Z,32.75
2019-03-17T10:02:47.569Z,32.70
2019-03-17T10:05:16.770Z,32.14
2019-03-17T10:07:45.694Z,31.49
2019-03-17T10:10:16.763Z,31.58
2019-03-17T10:12:45.961Z,32.08
2019-03-17T10:15:16.389Z,33.89
2019-03-17T10:17:45.458Z,33.04
2019-03-17T10:20:16.442Z,32.55
2019-03-17T10:22:45.568Z,32.49
2019-03-17T10:25:14.614Z,32.62
2019-03-17T10:27:43.600Z,33.35
2019-03-17T10:30:19.601Z,32.49
2019-03-17T10:32:48.651Z,30.72
2019-03-17T10:35:17.601Z,30.86
2019-03-17T10:37:46.680Z,31.55
2019-03-17T10:40:16.853Z,30.52
2019-03-17T10:42:45.931Z,31.29
2019-03-17T10:45:15.673Z,31.62
2019-03-17T10:47:44.755Z,32.01
2019-03-17T10:50:18.122Z,32.53
2019-03-17T10:52:47.122Z,30.32
2019-03-17T10:55:16.482Z,31.15
2019-03-17T10:57:45.648Z,32.25
2019-03-17T11:00:17.575Z,31.33
2019-03-17T11:02:46.682Z,32.04
2019-03-17T11:05:15.760Z,32.04
2019-03-17T11:07:44.967Z,32.44
2019-03-17T11:10:15.250Z,31.31
2019-03-17T11:12:44.486Z,31.39
2019-03-17T11:15:17.721Z,31.63
2019-03-17T11:17:46.809Z,30.92
2019-03-17T11:20:16.122Z,31.82
2019-03-17T11:22:45.202Z,31.26
2019-03-17T11:25:16.226Z,31.21
2019-03-17T11:27:45.402Z,31.64
2019-03-17T11:30:19.441Z,31.74
2019-03-17T11:32:48.731Z,31.86
2019-03-17T11:35:18.049Z,31.14
2019-03-17T11:37:47.321Z,31.46
2019-03-17T11:40:21.416Z,31.57
2019-03-17T11:42:50.688Z,31.38
2019-03-17T11:45:19.956Z,30.09
2019-03-17T11:47:49.275Z,29.91
2019-03-17T11:50:19.634Z,29.73
2019-03-17T11:52:48.882Z,29.63
2019-03-17T11:55:18.217Z,28.35
2019-03-17T11:57:47.640Z,29.45
2019-03-17T12:00:20.830Z,27.48
2019-03-17T12:02:49.836Z,28.20
2019-03-17T12:05:19.090Z,27.96
2019-03-17T12:07:48.161Z,27.59
2019-03-17T12:10:23.889Z,27.75
2019-03-17T12:12:52.962Z,28.28
2019-03-17T12:15:24.386Z,27.42
2019-03-17T12:17:53.370Z,27.70
2019-03-17T12:20:22.571Z,25.26
2019-03-17T12:22:51.673Z,27.79
2019-03-17T12:25:20.882Z,26.57
2019-03-17T12:27:50.114Z,22.95
2019-03-17T12:30:27.160Z,21.67
2019-03-17T12:32:56.921Z,23.18
2019-03-17T12:35:25.975Z,22.33
2019-03-17T12:37:55.129Z,22.76
2019-03-17T12:40:24.361Z,23.26
2019-03-17T12:42:53.421Z,23.22
2019-03-17T12:45:22.523Z,23.03
2019-03-17T12:47:51.520Z,23.32
2019-03-17T12:50:27.726Z,23.19
2019-03-17T12:52:56.929Z,22.83
2019-03-17T12:55:26.128Z,22.42
2019-03-17T12:57:55.288Z,22.92
2019-03-17T13:00:27.930Z,23.03
2019-03-17T13:02:57.210Z,22.02
2019-03-17T13:05:26.488Z,21.77
2019-03-17T13:07:55.720Z,23.45
2019-03-17T13:10:24.931Z,23.02
2019-03-17T13:12:54.122Z,22.48
2019-03-17T13:15:24.291Z,23.18
2019-03-17T13:17:53.491Z,23.38
2019-03-17T13:20:22.841Z,23.64
2019-03-17T13:22:52.012Z,23.68
2019-03-17T13:25:21.162Z,21.23
2019-03-17T13:27:50.407Z,22.40
2019-03-17T13:30:20.050Z,22.64
2019-03-17T13:32:49.211Z,22.88
2019-03-17T13:35:18.409Z,22.99
2019-03-17T13:37:47.560Z,22.32
2019-03-17T13:40:28.777Z,22.69
2019-03-17T13:42:49.689Z,23.54
2019-03-17T13:45:18.932Z,22.98
2019-03-17T13:47:48.169Z,22.92
2019-03-17T13:50:21.939Z,23.25
2019-03-17T13:52:51.172Z,22.78
2019-03-17T13:55:20.488Z,22.87
2019-03-17T13:57:52.520Z,22.25
2019-03-17T14:00:21.770Z,23.33
2019-03-17T14:02:51.050Z,23.23
2019-03-17T14:05:20.280Z,22.51
2019-03-17T14:07:49.440Z,22.35
2019-03-17T14:10:19.410Z,21.85
2019-03-17T14:12:48.627Z,23.49
2019-03-17T14:15:17.921Z,23.15
2019-03-17T14:17:47.084Z,23.43
2019-03-17T14:20:21.027Z,23.15
2019-03-17T14:22:50.546Z,23.82
2019-03-17T14:25:31.591Z,25.84
2019-03-17T14:28:00.854Z,25.18
2019-03-17T14:30:30.100Z,25.16
2019-03-17T14:32:59.408Z,24.75
2019-03-17T14:35:28.610Z,25.48
2019-03-17T14:37:58.000Z,24.91
2019-03-17T14:40:27.255Z,25.24
2019-03-17T14:42:56.489Z,25.78
2019-03-17T14:45:25.600Z,25.34
2019-03-17T14:47:54.930Z,26.26
2019-03-17T14:50:25.001Z,27.24
2019-03-17T14:52:54.262Z,28.14
2019-03-17T14:55:23.561Z,27.46
2019-03-17T14:57:52.730Z,26.77
2019-03-17T15:00:23.309Z,27.03
2019-03-17T15:02:52.567Z,26.94
2019-03-17T15:05:21.770Z,28.04
2019-03-17T15:07:50.970Z,28.07
2019-03-17T15:10:21.254Z,27.67
2019-03-17T15:12:50.533Z,28.86
2019-03-17T15:15:20.665Z,28.96
2019-03-17T15:17:50.210Z,29.71
2019-03-17T15:20:22.168Z,29.45
2019-03-17T15:22:51.409Z,29.05
2019-03-17T15:25:20.684Z,29.89
2019-03-17T15:27:49.889Z,29.43
2019-03-17T15:30:31.014Z,29.72
2019-03-17T15:33:00.281Z,28.92
2019-03-17T15:35:29.442Z,29.05
2019-03-17T15:37:58.647Z,29.66
2019-03-17T15:40:27.881Z,29.52
2019-03-17T15:42:57.169Z,29.55
2019-03-17T15:45:26.775Z,29.17
2019-03-17T15:47:56.052Z,29.47
2019-03-17T15:50:26.125Z,29.67
2019-03-17T15:52:55.546Z,29.43
2019-03-17T15:55:24.920Z,30.08
2019-03-17T15:57:54.250Z,29.90
2019-03-17T16:00:27.298Z,30.09
2019-03-17T16:02:57.642Z,29.95
2019-03-17T16:05:26.850Z,29.76
2019-03-17T16:07:56.040Z,30.23
2019-03-17T16:10:32.763Z,29.86
2019-03-17T16:13:02.012Z,30.26
2019-03-17T16:15:31.283Z,30.00
2019-03-17T16:18:00.527Z,30.10
2019-03-17T16:20:29.691Z,30.37
2019-03-17T16:22:58.962Z,30.84
2019-03-17T16:25:32.770Z,30.83
2019-03-17T16:28:02.096Z,31.07
2019-03-17T16:30:32.328Z,31.09
2019-03-17T16:33:01.650Z,31.26
2019-03-17T16:35:30.813Z,31.06
2019-03-17T16:38:00.184Z,31.07
2019-03-17T16:40:36.370Z,31.03
2019-03-17T16:43:07.091Z,30.79
2019-03-17T16:45:37.901Z,30.93
2019-03-17T16:48:07.130Z,30.78
2019-03-17T16:50:36.374Z,30.89
2019-03-17T16:53:05.607Z,30.84
2019-03-17T16:55:34.890Z,31.19
2019-03-17T16:58:04.204Z,30.81
2019-03-17T17:00:33.523Z,30.78
2019-03-17T17:03:02.722Z,30.97
2019-03-17T17:05:34.956Z,30.96
2019-03-17T17:08:02.884Z,30.92
2019-03-17T17:10:32.689Z,31.25
2019-03-17T17:13:01.925Z,31.32
2019-03-17T17:15:32.882Z,31.19
2019-03-17T17:18:02.172Z,30.90
2019-03-17T17:20:35.930Z,31.03
2019-03-17T17:23:05.309Z,30.92
2019-03-17T17:25:34.640Z,31.01
2019-03-17T17:28:03.881Z,30.85
2019-03-17T17:30:33.122Z,30.85
2019-03-17T17:33:02.370Z,30.76
2019-03-17T17:35:31.644Z,30.88
2019-03-17T17:38:00.874Z,30.95
2019-03-17T17:40:30.109Z,30.75
2019-03-17T17:42:59.323Z,30.42
2019-03-17T17:45:28.579Z,30.86
2019-03-17T17:47:57.777Z,30.53
2019-03-17T17:50:29.997Z,31.22
2019-03-17T17:52:59.312Z,30.75
2019-03-17T17:55:28.578Z,30.88
2019-03-17T17:57:57.857Z,31.09
2019-03-17T18:00:31.096Z,31.41
2019-03-17T18:03:01.699Z,32.07
2019-03-17T18:05:30.937Z,31.95
2019-03-17T18:08:00.193Z,32.22
2019-03-17T18:10:29.348Z,32.47
2019-03-17T18:12:58.577Z,32.83
2019-03-17T18:15:34.899Z,33.11
2019-03-17T18:18:05.538Z,33.28
2019-03-17T18:20:34.707Z,34.26
2019-03-17T18:23:03.899Z,33.53
2019-03-17T18:25:33.100Z,34.75
2019-03-17T18:28:02.378Z,33.92
2019-03-17T18:30:31.577Z,35.10
2019-03-17T18:33:00.825Z,35.15
2019-03-17T18:35:30.180Z,34.71
2019-03-17T18:38:00.822Z,35.09
2019-03-17T18:40:30.180Z,35.26
2019-03-17T18:42:59.579Z,35.40
2019-03-17T18:45:30.417Z,35.90
2019-03-17T18:47:59.697Z,36.13
2019-03-17T18:50:29.063Z,36.63
2019-03-17T18:52:58.419Z,36.99
2019-03-17T18:55:27.738Z,37.32
2019-03-17T18:57:57.059Z,37.74
2019-03-17T19:00:28.539Z,38.15
2019-03-17T19:02:57.910Z,38.40
2019-03-17T19:05:27.163Z,38.49
2019-03-17T19:07:56.440Z,39.06
2019-03-17T19:10:25.699Z,39.38
2019-03-17T19:12:54.999Z,39.75
2019-03-17T19:15:24.540Z,40.67
2019-03-17T19:17:53.780Z,41.52
2019-03-17T19:20:23.759Z,42.52
2019-03-17T19:22:52.901Z,42.73
2019-03-17T19:25:23.360Z,43.51
2019-03-17T19:27:52.561Z,43.94
2019-03-17T19:30:23.604Z,44.57
2019-03-17T19:32:52.758Z,45.65
2019-03-17T19:35:23.421Z,46.12
2019-03-17T19:37:52.720Z,46.69
2019-03-17T19:40:25.638Z,47.03
2019-03-17T19:42:59.549Z,47.50
2019-03-17T19:45:27.343Z,47.72
2019-03-17T19:47:56.481Z,48.05
2019-03-17T19:50:25.824Z,48.40
2019-03-17T19:52:55.110Z,48.57
2019-03-17T19:55:24.309Z,48.99
2019-03-17T19:57:54.999Z,49.34
2019-03-17T20:00:24.299Z,48.34
2019-03-17T20:02:53.522Z,47.77
2019-03-17T20:05:22.740Z,51.41
2019-03-17T20:07:52.021Z,53.70
2019-03-17T20:10:29.620Z,54.73
2019-03-17T20:13:10.718Z,55.76
2019-03-17T20:15:29.703Z,55.85
2019-03-17T20:17:59.020Z,56.90
2019-03-17T20:20:28.860Z,57.00
2019-03-17T20:22:59.379Z,57.57
2019-03-17T20:25:28.440Z,57.61
2019-03-17T20:27:57.605Z,57.71
2019-03-17T20:30:26.778Z,58.02
2019-03-17T20:32:55.923Z,57.90
2019-03-17T20:35:25.080Z,57.68
2019-03-17T20:37:54.239Z,56.87
2019-03-17T20:40:23.259Z,56.45
2019-03-17T20:42:52.344Z,56.65
2019-03-17T20:45:21.474Z,56.54
2019-03-17T20:47:50.667Z,55.80
2019-03-17T20:50:21.726Z,55.55
2019-03-17T20:52:50.957Z,55.53
2019-03-17T20:55:20.120Z,55.76
2019-03-17T20:57:49.319Z,55.98
2019-03-17T21:00:19.319Z,55.45
2019-03-17T21:02:48.493Z,55.36
2019-03-17T21:05:18.111Z,55.70
2019-03-17T21:07:47.343Z,55.17
2019-03-17T21:10:17.145Z,55.33
2019-03-17T21:12:46.241Z,55.12
2019-03-17T21:15:17.364Z,55.32
2019-03-17T21:17:46.518Z,55.00
2019-03-17T21:20:17.160Z,55.01
2019-03-17T21:22:46.218Z,54.97
2019-03-17T21:25:15.326Z,55.03
2019-03-17T21:27:44.561Z,54.92
2019-03-17T21:30:20.441Z,54.84
2019-03-17T21:32:49.747Z,54.67
2019-03-17T21:35:18.902Z,54.87
2019-03-17T21:37:47.879Z,55.15
2019-03-17T21:40:16.938Z,54.63
2019-03-17T21:42:46.122Z,54.92
2019-03-17T21:45:15.402Z,55.11
2019-03-17T21:47:44.558Z,55.10
2019-03-17T21:50:20.441Z,54.40
2019-03-17T21:52:49.627Z,54.61
2019-03-17T21:55:18.798Z,54.44
2019-03-17T21:57:47.778Z,54.31
2019-03-17T22:00:18.639Z,54.71
2019-03-17T22:02:47.558Z,55.33
2019-03-17T22:05:17.057Z,55.12
2019-03-17T22:07:49.981Z,55.44
2019-03-17T22:10:20.606Z,55.52
2019-03-17T22:12:49.618Z,55.84
2019-03-17T22:15:19.084Z,56.11
2019-03-17T22:17:48.078Z,56.14
2019-03-17T22:20:17.678Z,56.37
2019-03-17T22:22:46.580Z,56.60
2019-03-17T22:25:16.238Z,56.81
2019-03-17T22:27:45.205Z,56.74
2019-03-17T22:30:23.161Z,57.40
2019-03-17T22:32:52.158Z,58.07
2019-03-17T22:35:21.016Z,58.26
2019-03-17T22:37:49.921Z,57.87
2019-03-17T22:40:19.639Z,58.55
2019-03-17T22:42:48.479Z,58.61
2019-03-17T22:45:17.663Z,58.64
2019-03-17T22:47:46.726Z,59.02
2019-03-17T22:50:16.738Z,58.52
2019-03-17T22:52:45.799Z,58.44
2019-03-17T22:55:15.000Z,58.56
2019-03-17T22:57:43.859Z,57.45
2019-03-17T23:00:33.819Z,57.32
2019-03-17T23:03:02.862Z,57.13
2019-03-17T23:05:31.804Z,57.94
2019-03-17T23:08:00.742Z,57.90
2019-03-17T23:10:29.658Z,57.40
2019-03-17T23:12:58.878Z,57.55
2019-03-17T23:15:27.800Z,57.73
2019-03-17T23:17:56.858Z,57.69
2019-03-17T23:20:25.797Z,58.64
2019-03-17T23:22:54.658Z,59.16
2019-03-17T23:25:23.539Z,58.71
2019-03-17T23:27:52.399Z,58.39
2019-03-17T23:30:22.260Z,58.80
2019-03-17T23:32:51.118Z,58.56
2019-03-17T23:35:20.000Z,58.12
2019-03-17T23:37:48.977Z,58.92
2019-03-17T23:40:18.558Z,58.71
2019-03-17T23:42:47.418Z,58.93
2019-03-17T23:45:16.519Z,58.86
2019-03-17T23:47:45.399Z,58.72
2019-03-17T23:50:16.087Z,58.82
2019-03-17T23:52:45.000Z,58.90
2019-03-17T23:55:15.158Z,58.49
2019-03-17T23:57:44.063Z,59.59
